Time;durP1;ratioP1;P1;durP2;ratioP2;P2;SDS_P1;SDS_P2;PMS_P1;PMS_P2;Temp;Humidity;BMP_temperature;BMP_pressure;BME280_temperature;BME280_humidity;BME280_pressure;Samples;Min_cycle;Max_cycle;Signal;HPM_P1;HPM_P2
2021/08/07 00:02:14;;;;;;;0.30;0.20;;;26.50;46.40;;;;;;5037554;28;20047;-47
2021/08/07 00:04:41;;;;;;;1.10;0.30;;;26.50;46.40;;;;;;5048749;28;20047;-48
2021/08/07 00:07:08;;;;;;;1.50;0.10;;;26.50;46.40;;;;;;5034288;28;20045;-49
2021/08/07 00:09:37;;;;;;;0.50;0.20;;;26.50;46.40;;;;;;5048955;28;20052;-48
2021/08/07 00:12:04;;;;;;;0.60;0.40;;;26.40;46.40;;;;;;5047827;28;20865;-51
2021/08/07 00:14:31;;;;;;;0.25;0.15;;;26.50;46.50;;;;;;5045474;28;20045;-49
2021/08/07 00:16:59;;;;;;;0.35;0.10;;;26.50;46.50;;;;;;5033913;28;20056;-52
2021/08/07 00:19:26;;;;;;;0.20;0.10;;;26.40;46.40;;;;;;5048204;28;20059;-50
2021/08/07 00:21:53;;;;;;;0.43;0.20;;;26.40;46.40;;;;;;5049392;28;20837;-51
2021/08/07 00:24:20;;;;;;;1.75;0.10;;;26.40;46.50;;;;;;5039059;28;20503;-52
2021/08/07 00:26:49;;;;;;;0.57;0.20;;;26.40;46.50;;;;;;5041722;28;20056;-49
2021/08/07 00:29:16;;;;;;;1.00;0.20;;;26.40;46.50;;;;;;5047950;28;20045;-51
2021/08/07 00:31:44;;;;;;;0.82;0.20;;;26.40;46.50;;;;;;5048354;28;20051;-53
2021/08/07 00:34:11;;;;;;;0.57;0.20;;;26.40;46.50;;;;;;5050712;28;20124;-48
2021/08/07 00:36:39;;;;;;;0.20;0.10;;;26.40;46.60;;;;;;5046058;28;20613;-47
2021/08/07 00:39:06;;;;;;;1.90;0.30;;;26.40;46.60;;;;;;5038614;28;20046;-51
2021/08/07 00:41:34;;;;;;;0.70;0.20;;;26.30;46.50;;;;;;5032422;28;20447;-51
2021/08/07 00:44:03;;;;;;;1.33;0.20;;;26.30;46.60;;;;;;5030262;28;20045;-50
2021/08/07 00:46:35;;;;;;;1.27;0.10;;;26.30;46.60;;;;;;5047800;28;20077;-48
2021/08/07 00:49:04;;;;;;;0.55;0.10;;;26.30;46.60;;;;;;5047600;28;20049;-49
2021/08/07 00:51:31;;;;;;;1.77;0.25;;;26.30;46.70;;;;;;5046208;28;20126;-48
2021/08/07 00:54:04;;;;;;;0.95;0.13;;;26.30;47.20;;;;;;5038805;28;20557;-48
2021/08/07 00:56:31;;;;;;;0.85;0.10;;;26.30;46.70;;;;;;5038952;28;20098;-51
2021/08/07 00:59:06;;;;;;;0.75;0.10;;;26.30;46.70;;;;;;5047786;28;20036;-51
2021/08/07 01:01:40;;;;;;;1.15;0.10;;;26.30;46.70;;;;;;5047642;28;20078;-50
2021/08/07 01:04:18;;;;;;;0.10;0.10;;;26.20;46.70;;;;;;5033261;28;20152;-50
2021/08/07 01:06:52;;;;;;;0.52;0.10;;;26.30;46.80;;;;;;5043529;28;20541;-48
2021/08/07 01:09:27;;;;;;;0.32;0.10;;;26.30;46.80;;;;;;5060281;28;20160;-51
2021/08/07 01:12:00;;;;;;;1.00;0.10;;;26.20;46.80;;;;;;5046065;28;20041;-51
2021/08/07 01:14:37;;;;;;;0.10;0.10;;;26.20;46.80;;;;;;5043173;28;20059;-53
2021/08/07 01:17:10;;;;;;;2.22;0.20;;;26.20;46.80;;;;;;5035021;28;20103;-47
2021/08/07 01:19:47;;;;;;;1.48;0.20;;;26.20;46.90;;;;;;5033525;28;20041;-50
2021/08/07 01:22:19;;;;;;;1.27;0.20;;;26.20;46.80;;;;;;5027287;28;20068;-50
2021/08/07 01:25:02;;;;;;;0.10;0.00;;;26.20;46.90;;;;;;5063823;28;20510;-49
2021/08/07 01:27:37;;;;;;;0.20;0.10;;;26.20;46.90;;;;;;5034480;28;20073;-50
2021/08/07 01:30:19;;;;;;;0.32;0.10;;;26.20;47.00;;;;;;5043346;28;20072;-50
2021/08/07 01:32:48;;;;;;;0.82;0.10;;;26.20;46.90;;;;;;5057942;28;20932;-52
2021/08/07 01:35:17;;;;;;;0.47;0.10;;;26.10;46.90;;;;;;5038332;28;20272;-49
2021/08/07 01:37:48;;;;;;;0.60;0.10;;;26.20;46.90;;;;;;5048146;28;20088;-50
2021/08/07 01:40:33;;;;;;;0.98;0.10;;;26.20;47.00;;;;;;5045648;28;20048;-48
2021/08/07 01:43:24;;;;;;;0.40;0.10;;;26.10;46.90;;;;;;5044054;28;20123;-46
2021/08/07 01:45:54;;;;;;;0.13;0.10;;;26.10;47.00;;;;;;5046629;28;20155;-46
2021/08/07 01:48:34;;;;;;;0.43;0.10;;;26.10;46.90;;;;;;5036078;28;20037;-49
2021/08/07 01:51:15;;;;;;;2.53;0.10;;;26.10;47.00;;;;;;5042567;28;20109;-51
2021/08/07 01:53:51;;;;;;;0.35;0.28;;;26.10;47.00;;;;;;5040308;28;20041;-47
2021/08/07 01:56:26;;;;;;;0.15;0.10;;;26.10;47.00;;;;;;5035023;28;20053;-51
2021/08/07 01:58:58;;;;;;;0.35;0.10;;;26.10;47.00;;;;;;5045440;28;20056;-49
2021/08/07 02:01:31;;;;;;;0.20;0.10;;;26.10;47.00;;;;;;5046430;28;20126;-47
2021/08/07 02:04:00;;;;;;;0.20;0.20;;;26.10;47.00;;;;;;5046345;28;20461;-50
2021/08/07 02:06:32;;;;;;;0.38;0.00;;;26.00;46.90;;;;;;5061687;28;20052;-47
2021/08/07 02:09:02;;;;;;;1.08;0.20;;;26.10;47.00;;;;;;5045026;28;20064;-49
2021/08/07 02:11:41;;;;;;;1.65;0.10;;;26.10;47.00;;;;;;5041179;28;20033;-53
2021/08/07 02:14:11;;;;;;;1.00;0.00;;;26.00;47.00;;;;;;5030208;28;20055;-53
2021/08/07 02:16:40;;;;;;;1.08;0.10;;;26.00;47.00;;;;;;5028602;28;20037;-48
2021/08/07 02:19:09;;;;;;;0.35;0.10;;;26.00;47.00;;;;;;5042400;28;20576;-53
2021/08/07 02:21:39;;;;;;;0.50;0.00;;;26.00;47.00;;;;;;5050359;28;20052;-51
2021/08/07 02:24:10;;;;;;;0.20;0.10;;;26.00;47.00;;;;;;5041737;28;20044;-53
2021/08/07 02:26:45;;;;;;;;;;;26.00;47.00;;;;;;5045412;28;20140;-48
2021/08/07 02:29:15;;;;;;;0.30;0.10;;;25.90;46.90;;;;;;5046183;28;20442;-51
2021/08/07 02:31:52;;;;;;;0.90;0.40;;;25.90;47.10;;;;;;5045052;28;20135;-50
2021/08/07 02:34:20;;;;;;;3.45;0.10;;;25.90;47.10;;;;;;5047118;28;20533;-47
2021/08/07 02:36:49;;;;;;;0.55;0.10;;;25.90;47.10;;;;;;5045941;28;20622;-52
2021/08/07 02:39:23;;;;;;;0.30;0.08;;;25.90;47.10;;;;;;5050756;28;20036;-47
2021/08/07 02:41:51;;;;;;;0.32;0.13;;;25.90;47.10;;;;;;5044874;28;20091;-48
2021/08/07 02:44:21;;;;;;;0.35;0.10;;;25.90;47.10;;;;;;5044970;28;20063;-46
2021/08/07 02:46:49;;;;;;;1.45;0.10;;;25.90;47.10;;;;;;5030670;28;20041;-47
2021/08/07 02:49:18;;;;;;;1.92;0.10;;;25.90;47.10;;;;;;5044869;28;20493;-49
2021/08/07 02:51:49;;;;;;;0.35;0.10;;;25.90;47.10;;;;;;5052154;28;20094;-48
2021/08/07 02:54:17;;;;;;;0.35;0.00;;;25.90;47.10;;;;;;5052745;28;20056;-49
2021/08/07 02:56:44;;;;;;;0.47;0.20;;;25.90;47.10;;;;;;5056188;28;20068;-47
2021/08/07 02:59:12;;;;;;;0.10;0.05;;;25.90;47.10;;;;;;5041478;28;20045;-47
2021/08/07 03:01:41;;;;;;;0.10;0.10;;;25.90;47.10;;;;;;5028120;28;20041;-49
2021/08/07 03:04:09;;;;;;;0.88;0.10;;;25.90;47.10;;;;;;5045024;28;20582;-52
2021/08/07 03:06:37;;;;;;;0.68;0.25;;;25.90;47.10;;;;;;5031654;28;20046;-50
2021/08/07 03:09:05;;;;;;;0.20;0.00;;;25.90;47.10;;;;;;5044125;28;20045;-48
2021/08/07 03:11:38;;;;;;;0.30;0.00;;;25.90;47.10;;;;;;5048389;28;20069;-48
2021/08/07 03:14:07;;;;;;;0.28;0.20;;;25.90;47.10;;;;;;5045357;28;20041;-49
2021/08/07 03:16:38;;;;;;;0.20;0.10;;;25.90;47.10;;;;;;5032406;28;20064;-48
2021/08/07 03:19:10;;;;;;;0.22;0.00;;;25.90;47.10;;;;;;5045973;28;20045;-50
2021/08/07 03:21:37;;;;;;;0.52;0.35;;;25.90;47.20;;;;;;5037539;28;20570;-48
2021/08/07 03:24:08;;;;;;;0.20;0.10;;;25.90;47.20;;;;;;5044608;28;20037;-48
2021/08/07 03:26:38;;;;;;;0.22;0.10;;;25.80;47.10;;;;;;5044992;28;20045;-49
2021/08/07 03:29:15;;;;;;;0.70;0.10;;;25.80;47.10;;;;;;5037263;28;20103;-53
2021/08/07 03:31:42;;;;;;;0.82;0.10;;;25.90;47.20;;;;;;5045260;28;20525;-50
2021/08/07 03:34:11;;;;;;;0.73;0.10;;;25.80;47.20;;;;;;5032577;28;20044;-51
2021/08/07 03:36:43;;;;;;;0.20;0.20;;;25.80;47.10;;;;;;5035685;28;20045;-50
2021/08/07 03:39:10;;;;;;;1.75;0.10;;;25.90;47.20;;;;;;5044208;28;20400;-52
2021/08/07 03:41:40;;;;;;;0.68;0.00;;;25.80;47.20;;;;;;5045209;28;20520;-48
2021/08/07 03:44:09;;;;;;;0.47;0.10;;;25.80;47.20;;;;;;5036407;28;20075;-48
2021/08/07 03:46:37;;;;;;;0.08;0.00;;;25.80;47.20;;;;;;5049119;28;20053;-50
2021/08/07 03:49:06;;;;;;;1.27;0.00;;;25.80;47.20;;;;;;5048809;28;20037;-47
2021/08/07 03:51:41;;;;;;;0.13;0.00;;;25.80;47.20;;;;;;5045657;28;20068;-48
2021/08/07 03:54:10;;;;;;;0.10;0.00;;;25.80;47.20;;;;;;5047355;28;20051;-50
2021/08/07 03:56:37;;;;;;;0.73;0.10;;;25.80;47.20;;;;;;5044138;28;20150;-47
2021/08/07 03:59:06;;;;;;;1.15;0.13;;;25.80;47.20;;;;;;5034680;28;20051;-50
2021/08/07 04:01:34;;;;;;;0.90;0.10;;;25.80;47.20;;;;;;5031287;28;20116;-47
2021/08/07 04:04:07;;;;;;;0.55;0.20;;;25.80;47.30;;;;;;5044550;28;20172;-49
2021/08/07 04:06:46;;;;;;;0.32;0.10;;;25.80;47.30;;;;;;5047934;28;20052;-47
2021/08/07 04:09:19;;;;;;;0.93;0.10;;;25.80;47.30;;;;;;5037786;28;20527;-48
2021/08/07 04:11:48;;;;;;;1.27;0.32;;;25.80;47.30;;;;;;5042733;28;20102;-46
2021/08/07 04:14:15;;;;;;;1.08;0.10;;;25.80;47.30;;;;;;5059772;28;20461;-49
2021/08/07 04:16:43;;;;;;;0.03;0.03;;;25.80;47.30;;;;;;5046533;28;20457;-48
2021/08/07 04:19:18;;;;;;;0.15;0.00;;;25.80;47.30;;;;;;5048777;28;20040;-49
2021/08/07 04:21:52;;;;;;;1.10;0.45;;;25.80;47.30;;;;;;5034795;28;20507;-48
2021/08/07 04:24:20;;;;;;;0.10;0.00;;;25.80;47.40;;;;;;5038661;28;20129;-48
2021/08/07 04:26:47;;;;;;;0.63;0.32;;;25.70;47.30;;;;;;5036968;28;20485;-50
2021/08/07 04:29:18;;;;;;;0.20;0.00;;;25.80;47.40;;;;;;5032631;28;20103;-50
2021/08/07 04:31:48;;;;;;;0.20;0.10;;;25.80;47.40;;;;;;5031907;28;20392;-48
2021/08/07 04:34:15;;;;;;;0.60;0.00;;;25.70;47.30;;;;;;5050291;28;20589;-47
2021/08/07 04:36:43;;;;;;;1.00;0.10;;;25.80;47.40;;;;;;5036196;28;20045;-53
2021/08/07 04:39:11;;;;;;;1.25;0.00;;;25.80;47.40;;;;;;5040270;28;20158;-48
2021/08/07 04:41:40;;;;;;;0.35;0.00;;;25.70;47.30;;;;;;5046528;28;20055;-52
2021/08/07 04:44:08;;;;;;;2.28;0.10;;;25.70;47.40;;;;;;5046604;28;20072;-49
2021/08/07 04:46:35;;;;;;;0.60;0.00;;;25.70;47.40;;;;;;5046149;28;20048;-48
2021/08/07 04:49:02;;;;;;;0.10;0.00;;;25.80;47.50;;;;;;5047631;28;20040;-51
2021/08/07 04:51:30;;;;;;;0.10;0.10;;;25.70;47.40;;;;;;5046270;28;20580;-49
2021/08/07 04:53:57;;;;;;;0.03;0.00;;;25.70;47.40;;;;;;5046015;28;20075;-48
2021/08/07 04:56:25;;;;;;;0.08;0.00;;;25.70;47.40;;;;;;5044168;28;20052;-48
2021/08/07 04:58:52;;;;;;;0.47;0.20;;;25.70;47.40;;;;;;5046171;28;20524;-49
2021/08/07 05:01:27;;;;;;;0.00;0.00;;;25.70;47.40;;;;;;5043827;28;20411;-50
2021/08/07 05:03:54;;;;;;;0.45;0.10;;;25.70;48.10;;;;;;5037225;28;20091;-52
2021/08/07 05:06:21;;;;;;;0.32;0.10;;;25.70;47.50;;;;;;5051063;28;20041;-50
2021/08/07 05:08:49;;;;;;;0.50;0.32;;;25.70;47.50;;;;;;5034385;28;20057;-49
2021/08/07 05:11:17;;;;;;;0.45;0.10;;;25.70;47.50;;;;;;5040847;28;20044;-52
2021/08/07 05:13:45;;;;;;;0.70;0.00;;;25.70;47.50;;;;;;5045269;28;20506;-48
2021/08/07 05:16:15;;;;;;;0.82;0.30;;;25.70;47.50;;;;;;5049236;28;20055;-50
2021/08/07 05:18:43;;;;;;;0.47;0.00;;;25.70;47.60;;;;;;5035458;28;20478;-50
2021/08/07 05:21:10;;;;;;;0.20;0.10;;;25.70;47.50;;;;;;5031226;28;20054;-47
2021/08/07 05:23:41;;;;;;;0.90;0.47;;;25.70;47.60;;;;;;5038354;28;20045;-46
2021/08/07 05:26:09;;;;;;;0.93;0.00;;;25.70;47.60;;;;;;5040144;28;20050;-46
2021/08/07 05:28:36;;;;;;;0.15;0.05;;;25.70;47.60;;;;;;5036535;28;20529;-48
2021/08/07 05:31:06;;;;;;;0.98;0.10;;;25.70;47.60;;;;;;5046137;28;20049;-47
2021/08/07 05:33:35;;;;;;;1.08;0.03;;;25.70;47.60;;;;;;5045705;28;20404;-51
2021/08/07 05:36:04;;;;;;;0.20;0.00;;;25.70;47.60;;;;;;5038628;28;20418;-51
2021/08/07 05:38:31;;;;;;;1.25;0.03;;;25.60;47.60;;;;;;5034181;28;20060;-50
2021/08/07 05:40:58;;;;;;;0.30;0.10;;;25.60;47.60;;;;;;5031620;28;20038;-52
2021/08/07 05:43:25;;;;;;;3.13;0.20;;;25.60;47.60;;;;;;5046781;28;20174;-50
2021/08/07 05:45:54;;;;;;;0.93;0.10;;;25.60;47.60;;;;;;5046837;28;20143;-53
2021/08/07 05:48:23;;;;;;;0.10;0.00;;;25.60;47.60;;;;;;5044885;28;20578;-51
2021/08/07 05:50:50;;;;;;;0.95;0.20;;;25.60;47.70;;;;;;5028407;28;20052;-49
2021/08/07 05:53:18;;;;;;;0.90;0.32;;;25.60;47.70;;;;;;5046391;28;20041;-49
2021/08/07 05:55:45;;;;;;;2.25;0.43;;;25.60;47.70;;;;;;5045372;28;20589;-50
2021/08/07 05:58:12;;;;;;;0.98;0.52;;;25.60;47.80;;;;;;5029398;28;20049;-47
2021/08/07 06:00:43;;;;;;;1.50;1.05;;;25.60;47.70;;;;;;5061460;28;20047;-47
2021/08/07 06:03:10;;;;;;;1.30;0.90;;;25.60;47.80;;;;;;5038613;28;20053;-50
2021/08/07 06:05:43;;;;;;;0.95;0.70;;;25.60;47.80;;;;;;5037772;28;20064;-50
2021/08/07 06:08:11;;;;;;;1.67;0.75;;;25.60;47.80;;;;;;5040883;28;20049;-51
2021/08/07 06:10:39;;;;;;;1.55;0.75;;;25.60;47.80;;;;;;5036454;28;20036;-47
2021/08/07 06:13:07;;;;;;;1.85;1.05;;;25.60;47.80;;;;;;5046204;28;20040;-48
2021/08/07 06:15:35;;;;;;;2.63;0.90;;;25.60;47.80;;;;;;5048985;28;20135;-47
2021/08/07 06:18:02;;;;;;;1.90;0.90;;;25.60;47.90;;;;;;5044448;28;20045;-52
2021/08/07 06:20:32;;;;;;;2.03;0.90;;;25.60;47.80;;;;;;5044619;28;20075;-51
2021/08/07 06:23:01;;;;;;;2.45;0.80;;;25.60;47.90;;;;;;5044608;28;20120;-52
2021/08/07 06:25:29;;;;;;;1.95;0.80;;;25.60;47.90;;;;;;5045756;28;20048;-49
2021/08/07 06:27:57;;;;;;;1.35;1.05;;;25.60;47.90;;;;;;5047073;28;20087;-49
2021/08/07 06:30:27;;;;;;;3.33;1.42;;;25.60;48.00;;;;;;5041892;28;20059;-51
2021/08/07 06:32:56;;;;;;;1.60;0.70;;;25.60;48.00;;;;;;5030144;28;20414;-49
2021/08/07 06:35:24;;;;;;;5.20;0.70;;;25.60;48.00;;;;;;5033638;28;20052;-51
2021/08/07 06:37:51;;;;;;;2.42;0.95;;;25.60;48.00;;;;;;5029736;28;20041;-52
2021/08/07 06:40:20;;;;;;;0.82;0.30;;;25.60;48.10;;;;;;5047033;28;20099;-51
2021/08/07 06:42:47;;;;;;;0.82;0.82;;;25.60;48.10;;;;;;5045425;28;20053;-51
2021/08/07 06:45:33;;;;;;;;;;;25.60;48.10;;;;;;5044484;28;20056;-52
2021/08/07 06:48:05;;;;;;;1.08;0.68;;;25.60;48.10;;;;;;5038759;28;19925;-51
2021/08/07 06:50:34;;;;;;;1.27;0.47;;;25.60;48.30;;;;;;5028555;28;20422;-50
2021/08/07 06:53:01;;;;;;;1.25;0.40;;;25.60;48.30;;;;;;5054183;28;20045;-50
2021/08/07 06:55:29;;;;;;;1.83;0.50;;;25.60;48.30;;;;;;5042638;28;20110;-52
2021/08/07 06:57:57;;;;;;;2.85;0.63;;;25.60;48.30;;;;;;5032227;28;20053;-52
2021/08/07 07:00:25;;;;;;;2.03;0.47;;;25.60;48.30;;;;;;5042635;28;20800;-50
2021/08/07 07:02:52;;;;;;;1.50;0.20;;;25.70;48.40;;;;;;5039872;28;20123;-48
2021/08/07 07:05:20;;;;;;;0.93;0.45;;;25.70;48.30;;;;;;5032203;28;20041;-51
2021/08/07 07:07:47;;;;;;;0.73;0.20;;;25.70;48.30;;;;;;5043972;28;20045;-47
2021/08/07 07:10:15;;;;;;;0.77;0.60;;;25.70;48.30;;;;;;5031832;28;20467;-51
2021/08/07 07:12:44;;;;;;;1.25;0.20;;;25.70;48.30;;;;;;5046064;28;20123;-50
2021/08/07 07:15:14;;;;;;;1.52;0.22;;;25.70;48.30;;;;;;5043727;28;20049;-50
2021/08/07 07:17:42;;;;;;;1.48;0.10;;;25.70;48.30;;;;;;5044200;28;20041;-49
2021/08/07 07:20:10;;;;;;;0.82;0.10;;;25.70;48.30;;;;;;5040760;28;20038;-51
2021/08/07 07:22:39;;;;;;;1.58;0.15;;;25.70;48.40;;;;;;5026418;28;20040;-50
2021/08/07 07:25:09;;;;;;;0.57;0.30;;;25.70;48.30;;;;;;5028114;28;20136;-54
2021/08/07 07:27:36;;;;;;;0.88;0.20;;;25.70;48.30;;;;;;5033480;28;20056;-51
2021/08/07 07:30:07;;;;;;;0.68;0.10;;;25.80;48.40;;;;;;5039552;28;20406;-53
2021/08/07 07:32:34;;;;;;;0.10;0.10;;;25.80;48.40;;;;;;5042682;28;20128;-52
2021/08/07 07:35:02;;;;;;;1.05;0.10;;;25.80;48.40;;;;;;5030944;28;20041;-52
2021/08/07 07:37:31;;;;;;;0.85;0.13;;;25.80;48.40;;;;;;5044291;28;20060;-51
2021/08/07 07:39:58;;;;;;;0.55;0.15;;;25.80;48.40;;;;;;5031992;28;20045;-48
2021/08/07 07:42:26;;;;;;;2.50;0.10;;;25.80;48.30;;;;;;5042953;28;20060;-49
2021/08/07 07:44:54;;;;;;;0.73;0.20;;;25.80;48.30;;;;;;5038093;28;20076;-51
2021/08/07 07:47:23;;;;;;;0.43;0.20;;;25.80;48.30;;;;;;5033624;28;20387;-51
2021/08/07 07:49:51;;;;;;;2.05;0.20;;;25.80;48.30;;;;;;5041988;28;20061;-53
2021/08/07 07:52:20;;;;;;;1.77;0.10;;;25.80;48.30;;;;;;5028073;28;20052;-51
2021/08/07 07:54:47;;;;;;;1.95;0.10;;;25.90;48.30;;;;;;5031948;28;20118;-51
2021/08/07 07:57:15;;;;;;;0.52;0.10;;;25.90;48.30;;;;;;5039980;28;20050;-51
2021/08/07 07:59:43;;;;;;;2.10;0.20;;;25.90;48.70;;;;;;5033084;28;20138;-52
2021/08/07 08:02:10;;;;;;;0.22;0.20;;;25.90;48.30;;;;;;5035657;28;20114;-49
2021/08/07 08:04:39;;;;;;;0.60;0.10;;;25.90;48.30;;;;;;5047459;28;20060;-52
2021/08/07 08:07:07;;;;;;;1.00;0.20;;;25.90;48.30;;;;;;5044360;28;20056;-49
2021/08/07 08:09:34;;;;;;;0.73;0.10;;;25.90;48.20;;;;;;5051179;28;20057;-49
2021/08/07 08:12:02;;;;;;;0.32;0.10;;;25.90;48.20;;;;;;5047285;28;20041;-51
2021/08/07 08:14:48;;;;;;;2.13;0.10;;;25.90;48.20;;;;;;5047376;28;20036;-52
2021/08/07 08:17:15;;;;;;;0.50;0.20;;;26.00;48.30;;;;;;5048346;28;20127;-52
2021/08/07 08:19:43;;;;;;;2.05;0.10;;;25.90;48.80;;;;;;5045965;28;20069;-52
2021/08/07 08:22:10;;;;;;;0.73;0.10;;;26.00;48.20;;;;;;5049589;28;20132;-53
2021/08/07 08:24:39;;;;;;;0.75;0.10;;;26.00;48.20;;;;;;5032284;28;20049;-49
2021/08/07 08:27:06;;;;;;;0.10;0.10;;;26.00;48.20;;;;;;5037057;28;20049;-50
2021/08/07 08:29:33;;;;;;;1.02;0.20;;;26.00;48.20;;;;;;5038297;28;20126;-52
2021/08/07 08:32:01;;;;;;;1.55;0.10;;;26.00;48.10;;;;;;5046197;28;20041;-49
2021/08/07 08:34:28;;;;;;;0.68;0.10;;;26.10;48.20;;;;;;5030694;28;20061;-46
2021/08/07 08:36:57;;;;;;;0.65;0.10;;;26.00;48.00;;;;;;5047985;28;20055;-48
2021/08/07 08:39:25;;;;;;;0.88;0.10;;;26.10;48.00;;;;;;5046021;28;20052;-51
2021/08/07 08:41:53;;;;;;;0.10;0.10;;;26.00;48.00;;;;;;5047212;28;20585;-50
2021/08/07 08:44:20;;;;;;;0.17;0.00;;;26.10;48.00;;;;;;5035966;28;20040;-48
2021/08/07 08:46:48;;;;;;;0.65;0.10;;;26.10;47.90;;;;;;5046529;28;20056;-50
2021/08/07 08:49:16;;;;;;;0.52;0.10;;;26.10;47.90;;;;;;5032264;28;20660;-51
2021/08/07 08:51:45;;;;;;;0.40;0.10;;;26.10;47.90;;;;;;5047429;28;20053;-52
2021/08/07 08:54:16;;;;;;;2.17;0.28;;;26.10;47.90;;;;;;5046335;28;20433;-49
2021/08/07 08:56:46;;;;;;;0.77;0.10;;;26.10;47.80;;;;;;5042460;28;20049;-48
2021/08/07 08:59:14;;;;;;;0.65;0.10;;;26.10;47.90;;;;;;5036335;28;20775;-53
2021/08/07 09:01:42;;;;;;;2.08;0.20;;;26.10;47.80;;;;;;5047100;28;20041;-50
2021/08/07 09:04:09;;;;;;;0.70;0.47;;;26.10;47.80;;;;;;5039736;28;20441;-52
2021/08/07 09:06:37;;;;;;;0.20;0.10;;;26.20;47.90;;;;;;5046170;28;20061;-49
2021/08/07 09:09:08;;;;;;;0.45;0.20;;;26.20;47.90;;;;;;5038826;28;20057;-55
2021/08/07 09:11:38;;;;;;;0.35;0.00;;;26.20;47.90;;;;;;5037826;28;20056;-50
2021/08/07 09:14:21;;;;;;;0.40;0.20;;;26.20;47.90;;;;;;5045793;28;20493;-54
2021/08/07 09:17:12;;;;;;;0.63;0.32;;;26.20;47.80;;;;;;5045961;28;20045;-51
2021/08/07 09:19:53;;;;;;;0.75;0.65;;;26.20;47.90;;;;;;5029232;28;20056;-51
2021/08/07 09:22:24;;;;;;;0.68;0.10;;;26.20;47.90;;;;;;5047387;28;20471;-50
2021/08/07 09:24:58;;;;;;;0.47;0.10;;;26.20;48.00;;;;;;5047921;28;20041;-48
2021/08/07 09:27:32;;;;;;;0.15;0.00;;;26.20;48.10;;;;;;5044197;28;20538;-50
2021/08/07 09:29:59;;;;;;;0.60;0.10;;;26.20;48.10;;;;;;5045930;28;20088;-50
2021/08/07 09:32:26;;;;;;;1.52;0.10;;;26.20;48.10;;;;;;5043627;28;20404;-50
2021/08/07 09:35:05;;;;;;;0.30;0.20;;;26.20;48.10;;;;;;5044361;28;20049;-50
2021/08/07 09:37:32;;;;;;;0.28;0.10;;;26.20;48.00;;;;;;5029183;28;20068;-49
2021/08/07 09:40:01;;;;;;;1.50;0.10;;;26.20;48.10;;;;;;5035665;28;20051;-49
2021/08/07 09:42:33;;;;;;;0.85;0.82;;;26.20;48.10;;;;;;5038334;28;20049;-50
2021/08/07 09:45:04;;;;;;;0.50;0.20;;;26.20;48.20;;;;;;5034179;28;20033;-49
2021/08/07 09:47:34;;;;;;;0.38;0.00;;;26.20;48.20;;;;;;5037194;28;20519;-51
2021/08/07 09:50:03;;;;;;;0.10;0.10;;;26.20;48.20;;;;;;5045398;28;20403;-50
2021/08/07 09:52:37;;;;;;;0.57;0.10;;;26.20;48.30;;;;;;5046898;28;20052;-50
2021/08/07 09:55:05;;;;;;;0.52;0.10;;;26.20;48.30;;;;;;5031510;28;20050;-50
2021/08/07 09:57:34;;;;;;;1.08;0.10;;;26.20;48.30;;;;;;5039077;28;20049;-52
2021/08/07 10:00:05;;;;;;;1.58;0.20;;;26.20;48.30;;;;;;5041172;28;20051;-53
2021/08/07 10:02:42;;;;;;;0.20;0.10;;;26.20;48.40;;;;;;5046887;28;20391;-51
2021/08/07 10:05:27;;;;;;;0.63;0.10;;;26.20;48.40;;;;;;5041983;28;20041;-52
2021/08/07 10:08:02;;;;;;;0.55;0.10;;;26.30;48.50;;;;;;5028686;28;20110;-53
2021/08/07 10:10:38;;;;;;;0.40;0.20;;;26.20;48.50;;;;;;5045592;28;20037;-49
2021/08/07 10:13:11;;;;;;;0.20;0.08;;;26.20;48.50;;;;;;5042654;28;20049;-52
2021/08/07 10:15:49;;;;;;;0.20;0.10;;;26.20;48.50;;;;;;5030528;28;20045;-48
2021/08/07 10:18:17;;;;;;;1.65;0.10;;;26.20;48.60;;;;;;5042206;28;20067;-47
2021/08/07 10:20:45;;;;;;;0.68;0.10;;;26.30;48.70;;;;;;5039987;28;20419;-52
2021/08/07 10:23:13;;;;;;;1.30;0.10;;;26.20;48.70;;;;;;5033473;28;20040;-45
2021/08/07 10:25:45;;;;;;;2.45;0.10;;;26.20;48.70;;;;;;5045106;28;20143;-47
2021/08/07 10:28:18;;;;;;;2.25;0.10;;;26.30;49.00;;;;;;5029427;28;20050;-45
2021/08/07 10:30:47;;;;;;;1.10;0.20;;;26.20;49.00;;;;;;5032759;28;20055;-47
2021/08/07 10:33:15;;;;;;;0.85;0.10;;;26.20;49.20;;;;;;5043508;28;20037;-47
2021/08/07 10:35:44;;;;;;;1.17;0.20;;;26.30;49.40;;;;;;5045187;28;20033;-51
2021/08/07 10:38:12;;;;;;;0.20;0.10;;;26.20;49.30;;;;;;5045143;28;20617;-52
2021/08/07 10:40:39;;;;;;;0.30;0.10;;;26.20;49.40;;;;;;5041251;28;20056;-52
2021/08/07 10:43:07;;;;;;;1.15;0.10;;;26.20;49.40;;;;;;5050991;28;20037;-52
2021/08/07 10:45:41;;;;;;;0.35;0.10;;;26.20;49.40;;;;;;5046223;28;20053;-52
2021/08/07 10:48:36;;;;;;;1.17;0.10;;;26.20;49.50;;;;;;5044489;28;20037;-47
2021/08/07 10:51:31;;;;;;;0.30;0.10;;;26.30;49.50;;;;;;5044471;28;20494;-45
2021/08/07 10:54:01;;;;;;;0.93;0.68;;;26.30;49.60;;;;;;5046005;28;20040;-49
2021/08/07 10:56:37;;;;;;;2.33;0.25;;;26.20;49.70;;;;;;5045777;28;20048;-46
2021/08/07 10:59:22;;;;;;;0.65;0.10;;;26.20;49.70;;;;;;5046068;28;20136;-44
2021/08/07 11:01:51;;;;;;;0.45;0.20;;;26.20;49.70;;;;;;5031214;28;20091;-53
2021/08/07 11:04:21;;;;;;;0.73;0.55;;;26.20;49.80;;;;;;5045845;28;20504;-50
2021/08/07 11:06:57;;;;;;;2.15;0.08;;;26.30;49.90;;;;;;5033636;28;20418;-48
2021/08/07 11:09:26;;;;;;;;;;;26.20;49.90;;;;;;5034867;28;20053;-50
2021/08/07 11:12:19;;;;;;;1.40;0.10;;;26.20;49.80;;;;;;5040144;28;19925;-49
2021/08/07 11:14:57;;;;;;;0.30;0.10;;;26.20;50.00;;;;;;5037904;28;20049;-48
2021/08/07 11:17:29;;;;;;;0.55;0.10;;;26.20;50.10;;;;;;5045464;28;20063;-53
2021/08/07 11:20:03;;;;;;;0.52;0.10;;;26.30;50.20;;;;;;5046137;28;20087;-53
2021/08/07 11:23:07;;;;;;;0.50;0.10;;;26.30;50.20;;;;;;5046256;28;20052;-50
2021/08/07 11:26:05;;;;;;;0.40;0.10;;;26.30;50.10;;;;;;5045751;28;20036;-51
2021/08/07 11:28:34;;;;;;;0.55;0.10;;;26.30;50.20;;;;;;5047445;28;20426;-49
2021/08/07 11:31:21;;;;;;;0.17;0.15;;;26.30;50.30;;;;;;5051145;28;20045;-53
2021/08/07 11:34:25;;;;;;;0.60;0.10;;;26.30;50.20;;;;;;5050630;28;20483;-49
2021/08/07 11:37:25;;;;;;;0.20;0.10;;;26.40;50.30;;;;;;5041636;28;20049;-47
2021/08/07 11:40:16;;;;;;;1.80;0.10;;;26.40;50.20;;;;;;5045830;28;20123;-48
2021/08/07 11:42:50;;;;;;;0.63;0.08;;;26.40;50.30;;;;;;5049802;28;20055;-50
2021/08/07 11:45:20;;;;;;;2.75;0.10;;;26.40;50.40;;;;;;5049305;28;20040;-49
2021/08/07 11:47:50;;;;;;;1.85;0.10;;;26.40;50.40;;;;;;5049294;28;20069;-49
2021/08/07 11:50:19;;;;;;;0.60;0.10;;;26.40;50.40;;;;;;5049169;28;20079;-49
2021/08/07 11:52:47;;;;;;;0.50;0.00;;;26.40;50.40;;;;;;5049361;28;20048;-53
2021/08/07 11:55:14;;;;;;;1.90;0.10;;;26.50;50.40;;;;;;5049487;28;20045;-51
2021/08/07 11:57:41;;;;;;;0.20;0.00;;;26.50;50.40;;;;;;5037557;28;20145;-46
2021/08/07 12:00:28;;;;;;;1.90;0.10;;;26.50;50.30;;;;;;5045347;28;20115;-48
2021/08/07 12:02:57;;;;;;;0.93;0.57;;;26.50;50.30;;;;;;5048883;28;20082;-47
2021/08/07 12:05:25;;;;;;;0.30;0.10;;;26.40;50.20;;;;;;5048406;28;20041;-48
2021/08/07 12:08:13;;;;;;;0.10;0.10;;;26.50;50.20;;;;;;5048670;28;20068;-49
2021/08/07 12:10:48;;;;;;;1.00;0.08;;;26.50;50.10;;;;;;5026389;28;20118;-49
2021/08/07 12:13:23;;;;;;;0.20;0.10;;;26.50;50.20;;;;;;5046098;28;20076;-49
2021/08/07 12:16:01;;;;;;;0.70;0.52;;;26.50;50.10;;;;;;5034191;28;20132;-49
2021/08/07 12:18:39;;;;;;;0.47;0.10;;;26.60;50.10;;;;;;5036811;28;20046;-48
2021/08/07 12:21:08;;;;;;;0.20;0.10;;;26.60;50.10;;;;;;5037041;28;20057;-49
2021/08/07 12:23:43;;;;;;;0.20;0.10;;;26.50;50.10;;;;;;5036897;28;20037;-50
2021/08/07 12:26:10;;;;;;;0.63;0.10;;;26.60;50.10;;;;;;5037087;28;20143;-50
2021/08/07 12:28:37;;;;;;;0.88;0.10;;;26.50;50.00;;;;;;5032242;28;20052;-50
2021/08/07 12:31:04;;;;;;;0.35;0.20;;;26.60;50.10;;;;;;5049290;28;20150;-50
2021/08/07 12:33:33;;;;;;;2.42;0.10;;;26.60;50.10;;;;;;5047785;28;20064;-49
2021/08/07 12:36:12;;;;;;;0.90;0.10;;;26.60;50.10;;;;;;5048426;28;20541;-49
2021/08/07 12:38:42;;;;;;;0.30;0.10;;;26.60;50.10;;;;;;5046979;28;20553;-50
2021/08/07 12:41:09;;;;;;;0.85;0.20;;;26.60;50.20;;;;;;5035819;28;20040;-50
2021/08/07 12:43:37;;;;;;;0.57;0.40;;;26.70;50.20;;;;;;5048031;28;20087;-45
2021/08/07 12:46:05;;;;;;;2.22;0.10;;;26.60;50.10;;;;;;5049226;28;20262;-50
2021/08/07 12:48:50;;;;;;;0.70;0.28;;;26.70;50.10;;;;;;5047706;28;20040;-49
2021/08/07 12:51:31;;;;;;;2.20;0.77;;;26.70;50.00;;;;;;5047737;28;20041;-45
2021/08/07 12:53:59;;;;;;;1.38;0.10;;;26.70;50.00;;;;;;5041372;28;20513;-50
2021/08/07 12:56:31;;;;;;;0.93;0.73;;;26.70;50.00;;;;;;5038315;28;20037;-47
2021/08/07 12:59:04;;;;;;;0.40;0.08;;;26.80;50.10;;;;;;5047810;28;20060;-47
2021/08/07 13:01:33;;;;;;;0.63;0.10;;;26.80;50.00;;;;;;5046229;28;20102;-48
2021/08/07 13:04:01;;;;;;;3.60;0.10;;;26.80;50.00;;;;;;5049109;28;20044;-47
2021/08/07 13:06:33;;;;;;;0.47;0.10;;;26.80;49.90;;;;;;5047429;28;20060;-50
2021/08/07 13:09:22;;;;;;;0.60;0.10;;;26.80;49.80;;;;;;5047368;28;20055;-50